sensor_id;sensor_type;location;lat;lon;timestamp;pressure;altitude;pressure_sealevel;temperature;humidity
56604;BME280;42486;47.478;19.036;2022-12-13T00:02:50;99873.25;;;-2.61;100.00
56604;BME280;42486;47.478;19.036;2022-12-13T00:05:58;99874.97;;;-2.61;100.00
56604;BME280;42486;47.478;19.036;2022-12-13T00:09:02;99877.53;;;-2.61;100.00
56604;BME280;42486;47.478;19.036;2022-12-13T00:12:05;99884.34;;;-2.62;100.00
56604;BME280;42486;47.478;19.036;2022-12-13T00:15:19;99884.38;;;-2.63;100.00
56604;BME280;42486;47.478;19.036;2022-12-13T00:18:27;99881.78;;;-2.60;100.00
56604;BME280;42486;47.478;19.036;2022-12-13T00:21:37;99891.34;;;-2.69;100.00
56604;BME280;42486;47.478;19.036;2022-12-13T00:24:55;99882.94;;;-2.72;100.00
56604;BME280;42486;47.478;19.036;2022-12-13T00:28:17;99882.06;;;-2.71;100.00
56604;BME280;42486;47.478;19.036;2022-12-13T00:31:23;99877.22;;;-2.82;100.00
56604;BME280;42486;47.478;19.036;2022-12-13T00:34:47;99891.63;;;-2.79;100.00
56604;BME280;42486;47.478;19.036;2022-12-13T00:37:51;99886.03;;;-2.92;100.00
56604;BME280;42486;47.478;19.036;2022-12-13T00:40:54;99898.81;;;-2.94;100.00
56604;BME280;42486;47.478;19.036;2022-12-13T00:43:59;99891.28;;;-2.98;100.00
56604;BME280;42486;47.478;19.036;2022-12-13T00:47:08;99901.50;;;-2.98;100.00
56604;BME280;42486;47.478;19.036;2022-12-13T00:50:13;99895.59;;;-3.00;100.00
56604;BME280;42486;47.478;19.036;2022-12-13T00:53:28;99900.75;;;-3.03;100.00
56604;BME280;42486;47.478;19.036;2022-12-13T00:56:36;99906.75;;;-3.04;100.00
56604;BME280;42486;47.478;19.036;2022-12-13T00:59:40;99911.00;;;-3.03;100.00
56604;BME280;42486;47.478;19.036;2022-12-13T01:02:50;99909.59;;;-3.15;100.00
56604;BME280;42486;47.478;19.036;2022-12-13T01:05:53;99906.94;;;-3.11;100.00
56604;BME280;42486;47.478;19.036;2022-12-13T01:09:18;99912.16;;;-3.15;100.00
56604;BME280;42486;47.478;19.036;2022-12-13T01:12:21;99920.62;;;-3.15;100.00
56604;BME280;42486;47.478;19.036;2022-12-13T01:15:23;99922.84;;;-3.01;100.00
56604;BME280;42486;47.478;19.036;2022-12-13T01:18:30;99915.13;;;-2.98;100.00
56604;BME280;42486;47.478;19.036;2022-12-13T01:21:39;99918.59;;;-3.00;100.00
56604;BME280;42486;47.478;19.036;2022-12-13T01:24:45;99927.03;;;-2.98;100.00
56604;BME280;42486;47.478;19.036;2022-12-13T01:27:51;99929.75;;;-3.04;100.00
56604;BME280;42486;47.478;19.036;2022-12-13T01:30:55;99925.66;;;-3.12;100.00
56604;BME280;42486;47.478;19.036;2022-12-13T01:34:00;99929.38;;;-3.23;100.00
56604;BME280;42486;47.478;19.036;2022-12-13T01:37:11;99925.19;;;-3.26;100.00
56604;BME280;42486;47.478;19.036;2022-12-13T01:40:14;99932.03;;;-3.28;100.00
56604;BME280;42486;47.478;19.036;2022-12-13T01:43:17;99938.84;;;-3.27;100.00
56604;BME280;42486;47.478;19.036;2022-12-13T01:46:23;99936.62;;;-3.42;100.00
56604;BME280;42486;47.478;19.036;2022-12-13T01:49:29;99935.22;;;-3.56;100.00
56604;BME280;42486;47.478;19.036;2022-12-13T01:52:33;99939.53;;;-3.58;100.00
56604;BME280;42486;47.478;19.036;2022-12-13T01:55:36;99953.06;;;-3.54;100.00
56604;BME280;42486;47.478;19.036;2022-12-13T01:58:43;99952.22;;;-3.55;100.00
56604;BME280;42486;47.478;19.036;2022-12-13T02:01:50;99956.75;;;-3.67;100.00
56604;BME280;42486;47.478;19.036;2022-12-13T02:05:12;99951.72;;;-3.70;100.00
56604;BME280;42486;47.478;19.036;2022-12-13T02:08:28;99941.44;;;-3.67;100.00
56604;BME280;42486;47.478;19.036;2022-12-13T02:11:38;99944.72;;;-3.61;100.00
56604;BME280;42486;47.478;19.036;2022-12-13T02:14:44;99946.06;;;-3.46;100.00
56604;BME280;42486;47.478;19.036;2022-12-13T02:21:10;99943.38;;;-3.40;100.00
56604;BME280;42486;47.478;19.036;2022-12-13T02:24:36;99937.19;;;-3.29;100.00
56604;BME280;42486;47.478;19.036;2022-12-13T02:37:58;99958.47;;;-3.30;100.00
56604;BME280;42486;47.478;19.036;2022-12-13T02:41:14;99950.91;;;-3.35;100.00
56604;BME280;42486;47.478;19.036;2022-12-13T02:47:24;99942.25;;;-3.28;100.00
56604;BME280;42486;47.478;19.036;2022-12-13T02:50:27;99942.06;;;-3.20;100.00
56604;BME280;42486;47.478;19.036;2022-12-13T02:53:35;99945.34;;;-3.15;100.00
56604;BME280;42486;47.478;19.036;2022-12-13T02:56:38;99942.97;;;-3.21;100.00
56604;BME280;42486;47.478;19.036;2022-12-13T02:59:41;99949.81;;;-3.23;100.00
56604;BME280;42486;47.478;19.036;2022-12-13T03:12:36;99951.81;;;-3.36;100.00
56604;BME280;42486;47.478;19.036;2022-12-13T03:16:01;99949.97;;;-3.31;100.00
56604;BME280;42486;47.478;19.036;2022-12-13T03:19:07;99955.16;;;-3.34;100.00
56604;BME280;42486;47.478;19.036;2022-12-13T03:22:19;99952.72;;;-3.39;100.00
56604;BME280;42486;47.478;19.036;2022-12-13T03:25:23;99960.44;;;-3.42;100.00
56604;BME280;42486;47.478;19.036;2022-12-13T03:28:33;99959.69;;;-3.45;100.00
56604;BME280;42486;47.478;19.036;2022-12-13T03:31:38;99957.19;;;-3.48;100.00
56604;BME280;42486;47.478;19.036;2022-12-13T03:34:40;99958.16;;;-3.54;100.00
56604;BME280;42486;47.478;19.036;2022-12-13T03:37:50;99955.72;;;-3.59;100.00
56604;BME280;42486;47.478;19.036;2022-12-13T03:41:00;99958.28;;;-3.59;100.00
56604;BME280;42486;47.478;19.036;2022-12-13T03:44:05;99963.44;;;-3.62;100.00
56604;BME280;42486;47.478;19.036;2022-12-13T03:47:09;99965.88;;;-3.57;100.00
56604;BME280;42486;47.478;19.036;2022-12-13T03:50:14;99966.84;;;-3.61;100.00
56604;BME280;42486;47.478;19.036;2022-12-13T03:53:28;99967.69;;;-3.61;100.00
56604;BME280;42486;47.478;19.036;2022-12-13T03:56:35;99967.69;;;-3.61;100.00
56604;BME280;42486;47.478;19.036;2022-12-13T03:59:40;99976.31;;;-3.66;100.00
56604;BME280;42486;47.478;19.036;2022-12-13T04:02:43;99970.31;;;-3.64;100.00
56604;BME280;42486;47.478;19.036;2022-12-13T04:05:50;99973.00;;;-3.71;100.00
56604;BME280;42486;47.478;19.036;2022-12-13T04:08:55;99977.22;;;-3.69;100.00
56604;BME280;42486;47.478;19.036;2022-12-13T04:11:59;99981.50;;;-3.69;100.00
56604;BME280;42486;47.478;19.036;2022-12-13T04:15:21;99981.66;;;-3.79;100.00
56604;BME280;42486;47.478;19.036;2022-12-13T04:18:26;99989.69;;;-3.95;100.00
56604;BME280;42486;47.478;19.036;2022-12-13T04:21:30;99995.75;;;-4.03;100.00
56604;BME280;42486;47.478;19.036;2022-12-13T04:24:33;99989.19;;;-4.14;100.00
56604;BME280;42486;47.478;19.036;2022-12-13T04:27:39;99989.16;;;-4.13;100.00
56604;BME280;42486;47.478;19.036;2022-12-13T04:30:42;99991.69;;;-4.11;100.00
56604;BME280;42486;47.478;19.036;2022-12-13T04:33:45;99989.19;;;-4.14;100.00
56604;BME280;42486;47.478;19.036;2022-12-13T04:36:49;99984.88;;;-4.12;100.00
56604;BME280;42486;47.478;19.036;2022-12-13T04:39:53;99994.31;;;-4.16;100.00
56604;BME280;42486;47.478;19.036;2022-12-13T04:43:01;99991.00;;;-4.21;100.00
56604;BME280;42486;47.478;19.036;2022-12-13T04:46:05;99994.37;;;-4.17;100.00
56604;BME280;42486;47.478;19.036;2022-12-13T04:49:13;99994.50;;;-4.25;100.00
56604;BME280;42486;47.478;19.036;2022-12-13T04:52:22;99999.75;;;-4.33;100.00
56604;BME280;42486;47.478;19.036;2022-12-13T04:55:25;99992.00;;;-4.28;100.00
56604;BME280;42486;47.478;19.036;2022-12-13T04:58:27;99992.94;;;-4.34;100.00
56604;BME280;42486;47.478;19.036;2022-12-13T05:01:31;99993.19;;;-4.46;100.00
56604;BME280;42486;47.478;19.036;2022-12-13T05:04:37;99999.06;;;-4.43;100.00
56604;BME280;42486;47.478;19.036;2022-12-13T05:07:42;99994.66;;;-4.33;100.00
56604;BME280;42486;47.478;19.036;2022-12-13T05:10:44;99985.41;;;-4.38;100.00
56604;BME280;42486;47.478;19.036;2022-12-13T05:13:48;99988.06;;;-4.45;100.00
56604;BME280;42486;47.478;19.036;2022-12-13T05:16:53;99984.50;;;-4.36;100.00
56604;BME280;42486;47.478;19.036;2022-12-13T05:19:56;99984.66;;;-4.45;100.00
56604;BME280;42486;47.478;19.036;2022-12-13T05:22:59;99986.25;;;-4.39;100.00
56604;BME280;42486;47.478;19.036;2022-12-13T05:26:02;99988.84;;;-4.41;100.00
56604;BME280;42486;47.478;19.036;2022-12-13T05:29:07;99986.31;;;-4.43;100.00
56604;BME280;42486;47.478;19.036;2022-12-13T05:32:15;99997.19;;;-4.33;100.00
56604;BME280;42486;47.478;19.036;2022-12-13T05:35:19;99991.09;;;-4.26;100.00
56604;BME280;42486;47.478;19.036;2022-12-13T05:38:26;99998.03;;;-4.31;100.00
56604;BME280;42486;47.478;19.036;2022-12-13T05:41:30;99992.19;;;-4.37;100.00
56604;BME280;42486;47.478;19.036;2022-12-13T05:44:37;99988.91;;;-4.44;100.00
56604;BME280;42486;47.478;19.036;2022-12-13T05:47:42;99994.00;;;-4.44;100.00
56604;BME280;42486;47.478;19.036;2022-12-13T05:50:46;99989.62;;;-4.36;100.00
56604;BME280;42486;47.478;19.036;2022-12-13T05:53:50;100004.09;;;-4.39;100.00
56604;BME280;42486;47.478;19.036;2022-12-13T05:56:54;100009.94;;;-4.33;100.00
56604;BME280;42486;47.478;19.036;2022-12-13T05:59:58;100005.91;;;-4.45;100.00
56604;BME280;42486;47.478;19.036;2022-12-13T06:03:02;100006.91;;;-4.52;100.00
56604;BME280;42486;47.478;19.036;2022-12-13T06:06:07;100007.16;;;-4.69;100.00
56604;BME280;42486;47.478;19.036;2022-12-13T06:09:10;100010.66;;;-4.74;100.00
56604;BME280;42486;47.478;19.036;2022-12-13T06:12:14;100003.78;;;-4.69;100.00
56604;BME280;42486;47.478;19.036;2022-12-13T06:15:33;100006.28;;;-4.66;100.00
56604;BME280;42486;47.478;19.036;2022-12-13T06:18:45;100013.78;;;-4.58;100.00
56604;BME280;42486;47.478;19.036;2022-12-13T06:21:52;100013.84;;;-4.61;100.00
56604;BME280;42486;47.478;19.036;2022-12-13T06:24:55;100017.34;;;-4.67;100.00
56604;BME280;42486;47.478;19.036;2022-12-13T06:27:58;100011.53;;;-4.77;100.00
56604;BME280;42486;47.478;19.036;2022-12-13T06:31:02;100013.37;;;-4.85;100.00
56604;BME280;42486;47.478;19.036;2022-12-13T06:34:07;100019.38;;;-4.88;100.00
56604;BME280;42486;47.478;19.036;2022-12-13T06:37:16;100017.75;;;-4.92;100.00
56604;BME280;42486;47.478;19.036;2022-12-13T06:40:23;100030.50;;;-4.93;100.00
56604;BME280;42486;47.478;19.036;2022-12-13T06:43:26;100027.13;;;-4.94;100.00
56604;BME280;42486;47.478;19.036;2022-12-13T06:46:29;100030.50;;;-4.93;100.00
56604;BME280;42486;47.478;19.036;2022-12-13T06:49:33;100036.38;;;-4.90;100.00
56604;BME280;42486;47.478;19.036;2022-12-13T06:52:39;100043.78;;;-4.74;100.00
56604;BME280;42486;47.478;19.036;2022-12-13T06:55:42;100040.34;;;-4.72;100.00
56604;BME280;42486;47.478;19.036;2022-12-13T06:58:46;100043.53;;;-4.59;100.00
56604;BME280;42486;47.478;19.036;2022-12-13T07:01:49;100040.06;;;-4.55;100.00
56604;BME280;42486;47.478;19.036;2022-12-13T07:04:54;100061.13;;;-4.45;100.00
56604;BME280;42486;47.478;19.036;2022-12-13T07:07:56;100060.19;;;-4.39;100.00
56604;BME280;42486;47.478;19.036;2022-12-13T07:11:04;100065.22;;;-4.36;100.00
56604;BME280;42486;47.478;19.036;2022-12-13T07:14:16;100060.87;;;-4.30;100.00
56604;BME280;42486;47.478;19.036;2022-12-13T07:17:20;100065.78;;;-4.17;100.00
56604;BME280;42486;47.478;19.036;2022-12-13T07:20:35;100063.87;;;-4.08;100.00
56604;BME280;42486;47.478;19.036;2022-12-13T07:23:41;100064.63;;;-4.01;100.00
56604;BME280;42486;47.478;19.036;2022-12-13T07:26:55;100062.06;;;-4.01;100.00
56604;BME280;42486;47.478;19.036;2022-12-13T07:29:59;100068.72;;;-3.92;100.00
56604;BME280;42486;47.478;19.036;2022-12-13T07:33:11;100068.72;;;-3.94;100.00
56604;BME280;42486;47.478;19.036;2022-12-13T07:36:24;100068.78;;;-3.97;100.00
56604;BME280;42486;47.478;19.036;2022-12-13T07:39:29;100065.19;;;-3.85;100.00
56604;BME280;42486;47.478;19.036;2022-12-13T07:42:34;100068.75;;;-3.52;100.00
56604;BME280;42486;47.478;19.036;2022-12-13T07:45:37;100079.25;;;-3.24;100.00
56604;BME280;42486;47.478;19.036;2022-12-13T07:48:42;100078.06;;;-3.09;100.00
56604;BME280;42486;47.478;19.036;2022-12-13T07:51:51;100079.50;;;-2.97;100.00
56604;BME280;42486;47.478;19.036;2022-12-13T07:54:56;100068.31;;;-2.93;100.00
56604;BME280;42486;47.478;19.036;2022-12-13T07:58:11;100079.62;;;-3.03;100.00
56604;BME280;42486;47.478;19.036;2022-12-13T08:01:26;100082.22;;;-3.05;100.00
56604;BME280;42486;47.478;19.036;2022-12-13T08:04:32;100083.47;;;-2.84;100.00
56604;BME280;42486;47.478;19.036;2022-12-13T08:07:40;100085.19;;;-2.49;100.00
56604;BME280;42486;47.478;19.036;2022-12-13T08:10:45;100085.41;;;-2.24;100.00
56604;BME280;42486;47.478;19.036;2022-12-13T08:13:49;100087.72;;;-2.14;100.00
56604;BME280;42486;47.478;19.036;2022-12-13T08:16:54;100095.13;;;-2.04;100.00
56604;BME280;42486;47.478;19.036;2022-12-13T08:19:58;100088.69;;;-1.86;100.00
56604;BME280;42486;47.478;19.036;2022-12-13T08:23:01;100087.09;;;-1.90;100.00
56604;BME280;42486;47.478;19.036;2022-12-13T08:26:11;100085.06;;;-1.79;100.00
56604;BME280;42486;47.478;19.036;2022-12-13T08:29:17;100085.06;;;-1.79;100.00
56604;BME280;42486;47.478;19.036;2022-12-13T08:32:36;100096.66;;;-1.65;97.70
56604;BME280;42486;47.478;19.036;2022-12-13T08:35:40;100091.84;;;-1.46;98.55
56604;BME280;42486;47.478;19.036;2022-12-13T08:38:47;100099.47;;;-1.43;94.94
56604;BME280;42486;47.478;19.036;2022-12-13T08:41:51;100091.37;;;-1.29;95.22
56604;BME280;42486;47.478;19.036;2022-12-13T08:44:56;100095.47;;;-1.22;90.76
56604;BME280;42486;47.478;19.036;2022-12-13T08:48:00;100092.63;;;-1.13;89.58
56604;BME280;42486;47.478;19.036;2022-12-13T08:51:06;100098.94;;;-0.97;90.14
56604;BME280;42486;47.478;19.036;2022-12-13T08:54:13;100092.06;;;-0.95;87.04
56604;BME280;42486;47.478;19.036;2022-12-13T08:57:41;100086.72;;;-0.89;86.73
56604;BME280;42486;47.478;19.036;2022-12-13T09:00:56;100093.16;;;-0.75;86.06
56604;BME280;42486;47.478;19.036;2022-12-13T09:04:06;100097.16;;;-0.67;84.61
56604;BME280;42486;47.478;19.036;2022-12-13T09:07:34;100092.28;;;-0.74;83.37
56604;BME280;42486;47.478;19.036;2022-12-13T09:10:38;100093.28;;;-0.52;82.65
56604;BME280;42486;47.478;19.036;2022-12-13T09:13:43;100094.19;;;-0.53;80.76
56604;BME280;42486;47.478;19.036;2022-12-13T09:16:48;100088.72;;;-0.43;81.89
56604;BME280;42486;47.478;19.036;2022-12-13T09:20:07;100090.00;;;-0.30;78.57
56604;BME280;42486;47.478;19.036;2022-12-13T09:23:31;100086.56;;;-0.29;78.54
56604;BME280;42486;47.478;19.036;2022-12-13T09:26:36;100079.69;;;-0.29;77.48
56604;BME280;42486;47.478;19.036;2022-12-13T09:29:39;100083.34;;;-0.36;76.28
56604;BME280;42486;47.478;19.036;2022-12-13T09:32:45;100084.87;;;-0.30;78.87
56604;BME280;42486;47.478;19.036;2022-12-13T09:35:51;100084.00;;;-0.04;76.01
56604;BME280;42486;47.478;19.036;2022-12-13T09:38:56;100086.22;;;0.05;76.40
56604;BME280;42486;47.478;19.036;2022-12-13T09:42:20;100077.69;;;0.05;74.88
56604;BME280;42486;47.478;19.036;2022-12-13T09:45:33;100085.09;;;0.14;75.72
56604;BME280;42486;47.478;19.036;2022-12-13T09:48:46;100086.91;;;0.10;74.70
56604;BME280;42486;47.478;19.036;2022-12-13T09:51:51;100083.69;;;0.29;75.72
56604;BME280;42486;47.478;19.036;2022-12-13T09:55:19;100079.88;;;0.40;72.05
56604;BME280;42486;47.478;19.036;2022-12-13T09:58:24;100077.84;;;0.25;71.09
56604;BME280;42486;47.478;19.036;2022-12-13T10:01:27;100072.59;;;0.28;70.89
56604;BME280;42486;47.478;19.036;2022-12-13T10:04:34;100062.84;;;0.38;70.22
56604;BME280;42486;47.478;19.036;2022-12-13T10:07:37;100063.13;;;0.54;72.23
56604;BME280;42486;47.478;19.036;2022-12-13T10:10:44;100068.84;;;0.60;72.51
56604;BME280;42486;47.478;19.036;2022-12-13T10:14:08;100066.44;;;0.56;71.47
56604;BME280;42486;47.478;19.036;2022-12-13T10:17:43;100058.91;;;0.51;72.72
56604;BME280;42486;47.478;19.036;2022-12-13T10:21:12;100057.69;;;0.61;73.41
56604;BME280;42486;47.478;19.036;2022-12-13T10:24:21;100056.38;;;0.73;75.13
56604;BME280;42486;47.478;19.036;2022-12-13T10:27:43;100053.53;;;0.57;76.02
56604;BME280;42486;47.478;19.036;2022-12-13T10:30:48;100053.94;;;0.70;74.98
56604;BME280;42486;47.478;19.036;2022-12-13T10:33:53;100046.31;;;0.91;77.33
56604;BME280;42486;47.478;19.036;2022-12-13T10:36:58;100049.56;;;0.72;72.82
56604;BME280;42486;47.478;19.036;2022-12-13T10:40:24;100044.44;;;0.72;75.21
56604;BME280;42486;47.478;19.036;2022-12-13T10:43:33;100044.72;;;0.86;75.76
56604;BME280;42486;47.478;19.036;2022-12-13T10:46:39;100046.59;;;0.83;75.09
56604;BME280;42486;47.478;19.036;2022-12-13T10:49:47;100036.06;;;0.89;78.44
56604;BME280;42486;47.478;19.036;2022-12-13T10:53:00;100038.62;;;0.89;72.70
56604;BME280;42486;47.478;19.036;2022-12-13T10:56:05;100041.66;;;0.77;72.17
56604;BME280;42486;47.478;19.036;2022-12-13T11:02:34;100034.47;;;1.29;73.90
56604;BME280;42486;47.478;19.036;2022-12-13T11:05:44;100038.19;;;1.44;73.70
56604;BME280;42486;47.478;19.036;2022-12-13T11:08:55;100027.94;;;1.42;74.10
56604;BME280;42486;47.478;19.036;2022-12-13T11:12:03;100031.94;;;1.49;71.62
56604;BME280;42486;47.478;19.036;2022-12-13T11:15:15;100025.81;;;1.52;70.19
56604;BME280;42486;47.478;19.036;2022-12-13T11:18:24;100020.22;;;1.42;68.95
56604;BME280;42486;47.478;19.036;2022-12-13T11:21:32;100019.72;;;1.54;70.04
56604;BME280;42486;47.478;19.036;2022-12-13T11:24:37;100012.63;;;1.60;72.05
56604;BME280;42486;47.478;19.036;2022-12-13T11:31:45;100005.34;;;1.49;69.33
56604;BME280;42486;47.478;19.036;2022-12-13T11:41:05;100002.13;;;1.23;69.00
56604;BME280;42486;47.478;19.036;2022-12-13T11:47:50;100000.72;;;1.37;69.62
56604;BME280;42486;47.478;19.036;2022-12-13T11:51:00;100000.63;;;1.38;69.12
56604;BME280;42486;47.478;19.036;2022-12-13T11:54:05;100005.34;;;1.49;69.17
56604;BME280;42486;47.478;19.036;2022-12-13T11:57:29;100004.31;;;1.53;68.09
56604;BME280;42486;47.478;19.036;2022-12-13T12:03:53;100000.41;;;1.44;67.63
56604;BME280;42486;47.478;19.036;2022-12-13T12:10:37;99996.59;;;1.32;67.58
56604;BME280;42486;47.478;19.036;2022-12-13T12:13:55;100005.16;;;1.33;68.91
56604;BME280;42486;47.478;19.036;2022-12-13T12:17:03;100004.16;;;1.36;67.56
56604;BME280;42486;47.478;19.036;2022-12-13T12:20:20;99994.91;;;1.31;67.34
56604;BME280;42486;47.478;19.036;2022-12-13T12:33:29;99995.88;;;1.29;68.70
56604;BME280;42486;47.478;19.036;2022-12-13T12:42:49;99993.87;;;1.36;68.95
56604;BME280;42486;47.478;19.036;2022-12-13T12:50:13;99990.66;;;1.10;68.15
56604;BME280;42486;47.478;19.036;2022-12-13T12:56:36;99990.22;;;1.21;68.16
56604;BME280;42486;47.478;19.036;2022-12-13T13:06:01;100001.03;;;1.29;67.95
56604;BME280;42486;47.478;19.036;2022-12-13T13:09:07;99997.84;;;1.22;67.81
56604;BME280;42486;47.478;19.036;2022-12-13T13:12:13;100001.50;;;1.17;68.39
56604;BME280;42486;47.478;19.036;2022-12-13T13:18:50;100005.44;;;1.05;68.38
56604;BME280;42486;47.478;19.036;2022-12-13T13:21:54;100009.09;;;0.99;68.14
56604;BME280;42486;47.478;19.036;2022-12-13T13:28:14;100018.84;;;0.91;69.00
56604;BME280;42486;47.478;19.036;2022-12-13T13:31:20;100017.16;;;0.90;68.98
56604;BME280;42486;47.478;19.036;2022-12-13T13:34:27;100010.34;;;0.89;70.00
56604;BME280;42486;47.478;19.036;2022-12-13T13:37:46;100022.50;;;0.85;70.77
56604;BME280;42486;47.478;19.036;2022-12-13T13:40:50;100020.81;;;0.84;70.78
56604;BME280;42486;47.478;19.036;2022-12-13T13:43:54;100027.72;;;0.82;70.03
56604;BME280;42486;47.478;19.036;2022-12-13T13:57:13;100038.25;;;0.54;69.53
56604;BME280;42486;47.478;19.036;2022-12-13T14:00:58;100034.84;;;0.54;71.37
56604;BME280;42486;47.478;19.036;2022-12-13T14:10:33;100028.09;;;0.28;74.21
56604;BME280;42486;47.478;19.036;2022-12-13T14:23:09;100024.81;;;-0.01;71.63
56604;BME280;42486;47.478;19.036;2022-12-13T14:29:42;100023.94;;;-0.25;75.17
56604;BME280;42486;47.478;19.036;2022-12-13T14:32:59;100026.78;;;-0.33;77.68
56604;BME280;42486;47.478;19.036;2022-12-13T14:36:04;100029.84;;;-0.48;76.56
56604;BME280;42486;47.478;19.036;2022-12-13T14:39:13;100030.37;;;-0.63;78.68
56604;BME280;42486;47.478;19.036;2022-12-13T14:42:28;100029.88;;;-0.75;77.78
56604;BME280;42486;47.478;19.036;2022-12-13T14:45:36;100029.25;;;-0.81;79.34
56604;BME280;42486;47.478;19.036;2022-12-13T14:48:49;100038.84;;;-0.88;79.12
56604;BME280;42486;47.478;19.036;2022-12-13T14:51:57;100035.44;;;-0.89;79.99
56604;BME280;42486;47.478;19.036;2022-12-13T14:55:05;100035.94;;;-1.04;82.04
56604;BME280;42486;47.478;19.036;2022-12-13T14:58:16;100039.72;;;-1.16;83.58
56604;BME280;42486;47.478;19.036;2022-12-13T15:01:23;100042.50;;;-1.23;83.58
56604;BME280;42486;47.478;19.036;2022-12-13T15:04:31;100038.44;;;-1.30;82.02
56604;BME280;42486;47.478;19.036;2022-12-13T15:07:39;100037.69;;;-1.33;82.75
56604;BME280;42486;47.478;19.036;2022-12-13T15:10:44;100041.09;;;-1.34;86.82
56604;BME280;42486;47.478;19.036;2022-12-13T15:13:49;100048.44;;;-1.21;86.42
56604;BME280;42486;47.478;19.036;2022-12-13T15:16:54;100051.19;;;-1.27;86.59
56604;BME280;42486;47.478;19.036;2022-12-13T15:20:00;100058.31;;;-1.37;88.55
56604;BME280;42486;47.478;19.036;2022-12-13T15:23:09;100063.44;;;-1.39;88.33
56604;BME280;42486;47.478;19.036;2022-12-13T15:26:17;100059.53;;;-1.50;90.46
56604;BME280;42486;47.478;19.036;2022-12-13T15:29:30;100058.03;;;-1.58;91.38
56604;BME280;42486;47.478;19.036;2022-12-13T15:32:34;100070.22;;;-1.66;91.14
56604;BME280;42486;47.478;19.036;2022-12-13T15:35:38;100077.97;;;-1.69;92.98
56604;BME280;42486;47.478;19.036;2022-12-13T15:41:59;100084.22;;;-1.78;93.43
56604;BME280;42486;47.478;19.036;2022-12-13T15:45:06;100070.81;;;-1.87;94.95
56604;BME280;42486;47.478;19.036;2022-12-13T15:48:26;100070.72;;;-1.84;95.82
56604;BME280;42486;47.478;19.036;2022-12-13T15:51:30;100080.31;;;-1.92;95.53
56604;BME280;42486;47.478;19.036;2022-12-13T15:54:39;100089.94;;;-2.01;96.23
56604;BME280;42486;47.478;19.036;2022-12-13T15:57:49;100085.94;;;-2.11;97.19
56604;BME280;42486;47.478;19.036;2022-12-13T16:00:53;100081.91;;;-2.21;96.14
56604;BME280;42486;47.478;19.036;2022-12-13T16:03:59;100084.66;;;-2.27;95.69
56604;BME280;42486;47.478;19.036;2022-12-13T16:07:32;100094.87;;;-2.27;95.34
56604;BME280;42486;47.478;19.036;2022-12-13T16:10:33;100099.34;;;-2.35;94.92
56604;BME280;42486;47.478;19.036;2022-12-13T16:13:36;100093.66;;;-2.47;95.30
56604;BME280;42486;47.478;19.036;2022-12-13T16:16:48;100101.19;;;-2.40;96.10
56604;BME280;42486;47.478;19.036;2022-12-13T16:19:51;100091.09;;;-2.47;99.00
56604;BME280;42486;47.478;19.036;2022-12-13T16:22:55;100093.50;;;-2.40;98.06
56604;BME280;42486;47.478;19.036;2022-12-13T16:26:02;100088.66;;;-2.53;97.73
56604;BME280;42486;47.478;19.036;2022-12-13T16:29:14;100094.75;;;-2.57;99.73
56604;BME280;42486;47.478;19.036;2022-12-13T16:32:27;100088.53;;;-2.47;100.00
56604;BME280;42486;47.478;19.036;2022-12-13T16:35:40;100087.38;;;-2.35;100.00
56604;BME280;42486;47.478;19.036;2022-12-13T16:38:43;100085.81;;;-2.39;100.00
56604;BME280;42486;47.478;19.036;2022-12-13T16:41:46;100087.84;;;-2.53;100.00
56604;BME280;42486;47.478;19.036;2022-12-13T16:44:51;100080.34;;;-2.61;100.00
56604;BME280;42486;47.478;19.036;2022-12-13T16:48:15;100074.63;;;-2.71;100.00
56604;BME280;42486;47.478;19.036;2022-12-13T16:51:24;100091.78;;;-2.76;100.00
56604;BME280;42486;47.478;19.036;2022-12-13T16:54:31;100091.13;;;-2.84;100.00
56604;BME280;42486;47.478;19.036;2022-12-13T16:57:54;100086.12;;;-2.90;100.00
56604;BME280;42486;47.478;19.036;2022-12-13T17:00:56;100074.31;;;-2.94;100.00
56604;BME280;42486;47.478;19.036;2022-12-13T17:04:00;100070.75;;;-2.87;100.00
56604;BME280;42486;47.478;19.036;2022-12-13T17:07:14;100077.53;;;-2.84;100.00
56604;BME280;42486;47.478;19.036;2022-12-13T17:10:17;100066.59;;;-2.93;100.00
56604;BME280;42486;47.478;19.036;2022-12-13T17:13:20;100077.69;;;-2.92;100.00
56604;BME280;42486;47.478;19.036;2022-12-13T17:16:25;100074.28;;;-2.93;100.00
56604;BME280;42486;47.478;19.036;2022-12-13T17:19:28;100076.22;;;-3.04;100.00
56604;BME280;42486;47.478;19.036;2022-12-13T17:22:31;100079.00;;;-3.13;100.00
56604;BME280;42486;47.478;19.036;2022-12-13T17:25:38;100080.91;;;-3.21;100.00
56604;BME280;42486;47.478;19.036;2022-12-13T17:28:40;100091.72;;;-3.10;100.00
56604;BME280;42486;47.478;19.036;2022-12-13T17:31:44;100098.47;;;-3.07;100.00
56604;BME280;42486;47.478;19.036;2022-12-13T17:34:51;100094.41;;;-3.16;100.00
56604;BME280;42486;47.478;19.036;2022-12-13T17:37:54;100095.34;;;-3.22;100.00
56604;BME280;42486;47.478;19.036;2022-12-13T17:41:03;100091.06;;;-3.20;100.00
56604;BME280;42486;47.478;19.036;2022-12-13T17:44:07;100086.66;;;-3.13;100.00
56604;BME280;42486;47.478;19.036;2022-12-13T17:47:10;100092.78;;;-3.20;100.00
56604;BME280;42486;47.478;19.036;2022-12-13T17:50:12;100091.87;;;-3.18;100.00
56604;BME280;42486;47.478;19.036;2022-12-13T17:53:15;100089.47;;;-3.25;100.00
56604;BME280;42486;47.478;19.036;2022-12-13T17:56:17;100090.53;;;-3.36;100.00
56604;BME280;42486;47.478;19.036;2022-12-13T17:59:20;100099.84;;;-3.33;100.00
56604;BME280;42486;47.478;19.036;2022-12-13T18:02:24;100099.19;;;-3.41;100.00
56604;BME280;42486;47.478;19.036;2022-12-13T18:05:26;100086.41;;;-3.41;100.00
56604;BME280;42486;47.478;19.036;2022-12-13T18:08:31;100088.94;;;-3.40;100.00
56604;BME280;42486;47.478;19.036;2022-12-13T18:11:34;100086.56;;;-3.49;100.00